sensor_id;sensor_type;location;lat;lon;timestamp;pressure;altitude;pressure_sealevel;temperature;humidity
4858;BME280;58975;51.978;8.472;2023-06-24T00:00:57;101201.28;;;14.01;100.00
4858;BME280;58975;51.978;8.472;2023-06-24T00:05:54;101206.06;;;13.97;100.00
4858;BME280;58975;51.978;8.472;2023-06-24T00:10:53;101213.22;;;13.97;100.00
4858;BME280;58975;51.978;8.472;2023-06-24T00:15:49;101211.06;;;13.91;100.00
4858;BME280;58975;51.978;8.472;2023-06-24T00:20:46;101203.41;;;13.86;100.00
4858;BME280;58975;51.978;8.472;2023-06-24T00:25:42;101197.56;;;13.81;100.00
4858;BME280;58975;51.978;8.472;2023-06-24T00:30:39;101206.72;;;13.79;100.00
4858;BME280;58975;51.978;8.472;2023-06-24T00:35:35;101216.22;;;13.71;100.00
4858;BME280;58975;51.978;8.472;2023-06-24T00:40:33;101207.69;;;13.66;100.00
4858;BME280;58975;51.978;8.472;2023-06-24T00:45:30;101211.59;;;13.62;100.00
4858;BME280;58975;51.978;8.472;2023-06-24T00:50:27;101221.94;;;13.56;100.00
4858;BME280;58975;51.978;8.472;2023-06-24T00:55:24;101215.34;;;13.49;100.00
4858;BME280;58975;51.978;8.472;2023-06-24T01:00:21;101213.53;;;13.38;100.00
4858;BME280;58975;51.978;8.472;2023-06-24T01:05:19;101208.91;;;13.29;100.00
4858;BME280;58975;51.978;8.472;2023-06-24T01:10:20;101212.84;;;13.25;100.00
4858;BME280;58975;51.978;8.472;2023-06-24T01:15:18;101216.91;;;13.07;100.00
4858;BME280;58975;51.978;8.472;2023-06-24T01:30:46;101229.94;;;12.65;100.00
4858;BME280;58975;51.978;8.472;2023-06-24T01:35:45;101241.34;;;12.67;100.00
4858;BME280;58975;51.978;8.472;2023-06-24T01:40:44;101234.72;;;12.84;100.00
4858;BME280;58975;51.978;8.472;2023-06-24T01:45:42;101231.09;;;12.85;100.00
4858;BME280;58975;51.978;8.472;2023-06-24T01:50:53;101236.03;;;12.78;100.00
4858;BME280;58975;51.978;8.472;2023-06-24T01:55:53;101243.69;;;12.72;100.00
4858;BME280;58975;51.978;8.472;2023-06-24T02:00:50;101239.41;;;12.58;100.00
4858;BME280;58975;51.978;8.472;2023-06-24T02:05:48;101238.13;;;12.51;100.00
4858;BME280;58975;51.978;8.472;2023-06-24T02:10:47;101230.25;;;12.50;100.00
4858;BME280;58975;51.978;8.472;2023-06-24T02:15:45;101232.78;;;12.51;100.00
4858;BME280;58975;51.978;8.472;2023-06-24T02:20:43;101234.50;;;12.52;100.00
4858;BME280;58975;51.978;8.472;2023-06-24T02:25:42;101238.75;;;12.55;100.00
4858;BME280;58975;51.978;8.472;2023-06-24T02:30:39;101233.97;;;12.47;100.00
4858;BME280;58975;51.978;8.472;2023-06-24T02:35:36;101240.41;;;12.21;100.00
4858;BME280;58975;51.978;8.472;2023-06-24T02:40:33;101248.38;;;12.33;100.00
4858;BME280;58975;51.978;8.472;2023-06-24T02:45:30;101245.09;;;12.30;100.00
4858;BME280;58975;51.978;8.472;2023-06-24T02:50:28;101246.56;;;12.34;100.00
4858;BME280;58975;51.978;8.472;2023-06-24T02:55:26;101239.50;;;12.33;100.00
4858;BME280;58975;51.978;8.472;2023-06-24T03:00:23;101247.56;;;12.20;100.00
4858;BME280;58975;51.978;8.472;2023-06-24T03:05:20;101247.72;;;12.19;100.00
4858;BME280;58975;51.978;8.472;2023-06-24T03:10:23;101271.28;;;12.25;100.00
4858;BME280;58975;51.978;8.472;2023-06-24T03:15:20;101275.66;;;12.26;100.00
4858;BME280;58975;51.978;8.472;2023-06-24T03:20:16;101270.59;;;12.34;100.00
4858;BME280;58975;51.978;8.472;2023-06-24T03:25:13;101264.28;;;12.35;100.00
4858;BME280;58975;51.978;8.472;2023-06-24T03:30:11;101264.06;;;12.38;100.00
4858;BME280;58975;51.978;8.472;2023-06-24T03:35:09;101258.16;;;12.22;100.00
4858;BME280;58975;51.978;8.472;2023-06-24T03:40:06;101256.97;;;12.26;100.00
4858;BME280;58975;51.978;8.472;2023-06-24T03:45:03;101256.97;;;12.26;100.00
4858;BME280;58975;51.978;8.472;2023-06-24T03:50:00;101264.75;;;12.29;100.00
4858;BME280;58975;51.978;8.472;2023-06-24T03:54:57;101265.31;;;12.45;100.00
4858;BME280;58975;51.978;8.472;2023-06-24T03:59:53;101270.19;;;12.51;100.00
4858;BME280;58975;51.978;8.472;2023-06-24T04:04:50;101275.75;;;12.48;100.00
4858;BME280;58975;51.978;8.472;2023-06-24T04:09:47;101279.72;;;12.66;100.00
4858;BME280;58975;51.978;8.472;2023-06-24T04:14:44;101281.47;;;12.78;100.00
4858;BME280;58975;51.978;8.472;2023-06-24T04:19:40;101271.06;;;12.87;100.00
4858;BME280;58975;51.978;8.472;2023-06-24T04:24:37;101267.94;;;12.93;100.00
4858;BME280;58975;51.978;8.472;2023-06-24T04:29:34;101271.34;;;13.06;100.00
4858;BME280;58975;51.978;8.472;2023-06-24T04:34:31;101265.34;;;13.26;100.00
4858;BME280;58975;51.978;8.472;2023-06-24T04:39:29;101273.63;;;13.45;100.00
4858;BME280;58975;51.978;8.472;2023-06-24T04:44:25;101272.19;;;13.63;100.00
4858;BME280;58975;51.978;8.472;2023-06-24T04:49:22;101277.28;;;13.66;100.00
4858;BME280;58975;51.978;8.472;2023-06-24T04:54:18;101274.84;;;13.86;100.00
4858;BME280;58975;51.978;8.472;2023-06-24T04:59:15;101277.38;;;13.98;100.00
4858;BME280;58975;51.978;8.472;2023-06-24T05:04:11;101285.53;;;14.19;100.00
4858;BME280;58975;51.978;8.472;2023-06-24T05:09:08;101278.78;;;14.36;100.00
4858;BME280;58975;51.978;8.472;2023-06-24T05:14:06;101277.63;;;14.60;100.00
4858;BME280;58975;51.978;8.472;2023-06-24T05:19:03;101278.28;;;14.94;100.00
4858;BME280;58975;51.978;8.472;2023-06-24T05:24:00;101271.78;;;15.29;100.00
4858;BME280;58975;51.978;8.472;2023-06-24T05:28:56;101261.53;;;15.64;100.00
4858;BME280;58975;51.978;8.472;2023-06-24T05:33:52;101258.97;;;16.12;100.00
4858;BME280;58975;51.978;8.472;2023-06-24T05:38:49;101245.63;;;16.70;100.00
4858;BME280;58975;51.978;8.472;2023-06-24T05:43:45;101246.69;;;17.06;100.00
4858;BME280;58975;51.978;8.472;2023-06-24T05:48:42;101245.16;;;17.49;100.00
4858;BME280;58975;51.978;8.472;2023-06-24T05:53:38;101253.81;;;17.90;100.00
4858;BME280;58975;51.978;8.472;2023-06-24T05:58:35;101246.31;;;18.11;100.00
4858;BME280;58975;51.978;8.472;2023-06-24T06:03:31;101236.56;;;18.46;100.00
4858;BME280;58975;51.978;8.472;2023-06-24T06:08:28;101237.16;;;18.93;100.00
4858;BME280;58975;51.978;8.472;2023-06-24T06:13:24;101248.41;;;19.31;100.00
4858;BME280;58975;51.978;8.472;2023-06-24T06:18:21;101253.94;;;19.48;100.00
4858;BME280;58975;51.978;8.472;2023-06-24T06:23:17;101249.22;;;19.50;100.00
4858;BME280;58975;51.978;8.472;2023-06-24T06:28:14;101264.19;;;19.70;100.00
4858;BME280;58975;51.978;8.472;2023-06-24T06:33:10;101259.28;;;20.15;100.00
4858;BME280;58975;51.978;8.472;2023-06-24T06:38:07;101251.63;;;20.37;100.00
4858;BME280;58975;51.978;8.472;2023-06-24T06:43:04;101247.56;;;20.41;100.00
4858;BME280;58975;51.978;8.472;2023-06-24T06:48:01;101253.16;;;20.63;100.00
4858;BME280;58975;51.978;8.472;2023-06-24T06:52:58;101264.50;;;20.83;100.00
4858;BME280;58975;51.978;8.472;2023-06-24T06:57:55;101263.81;;;21.05;100.00
4858;BME280;58975;51.978;8.472;2023-06-24T07:02:51;101258.25;;;21.23;100.00
4858;BME280;58975;51.978;8.472;2023-06-24T07:07:48;101256.03;;;21.43;100.00
4858;BME280;58975;51.978;8.472;2023-06-24T07:12:46;101262.16;;;21.84;100.00
4858;BME280;58975;51.978;8.472;2023-06-24T07:17:42;101261.78;;;22.03;100.00
4858;BME280;58975;51.978;8.472;2023-06-24T07:22:39;101265.28;;;22.42;100.00
4858;BME280;58975;51.978;8.472;2023-06-24T07:27:35;101255.53;;;22.56;100.00
4858;BME280;58975;51.978;8.472;2023-06-24T07:32:32;101257.63;;;22.77;100.00
4858;BME280;58975;51.978;8.472;2023-06-24T07:37:28;101264.34;;;23.03;100.00
4858;BME280;58975;51.978;8.472;2023-06-24T07:42:25;101262.16;;;22.31;100.00
4858;BME280;58975;51.978;8.472;2023-06-24T07:47:21;101261.75;;;21.64;100.00
4858;BME280;58975;51.978;8.472;2023-06-24T07:52:18;101272.41;;;22.66;100.00
4858;BME280;58975;51.978;8.472;2023-06-24T07:57:14;101267.09;;;23.18;100.00
4858;BME280;58975;51.978;8.472;2023-06-24T08:02:11;101253.56;;;23.91;100.00
4858;BME280;58975;51.978;8.472;2023-06-24T08:07:07;101259.09;;;23.69;100.00
4858;BME280;58975;51.978;8.472;2023-06-24T08:12:04;101270.03;;;24.04;100.00
4858;BME280;58975;51.978;8.472;2023-06-24T08:17:01;101268.94;;;24.85;100.00
4858;BME280;58975;51.978;8.472;2023-06-24T08:21:57;101264.59;;;24.76;100.00
4858;BME280;58975;51.978;8.472;2023-06-24T08:26:54;101274.03;;;23.87;100.00
4858;BME280;58975;51.978;8.472;2023-06-24T08:31:50;101258.28;;;24.33;100.00
4858;BME280;58975;51.978;8.472;2023-06-24T08:36:47;101253.88;;;24.89;100.00
4858;BME280;58975;51.978;8.472;2023-06-24T08:41:43;101255.66;;;25.04;100.00
4858;BME280;58975;51.978;8.472;2023-06-24T08:46:40;101249.03;;;25.13;100.00
4858;BME280;58975;51.978;8.472;2023-06-24T08:51:39;101241.19;;;25.31;100.00
4858;BME280;58975;51.978;8.472;2023-06-24T08:56:37;101238.00;;;24.78;100.00
4858;BME280;58975;51.978;8.472;2023-06-24T09:01:35;101234.28;;;24.08;100.00
4858;BME280;58975;51.978;8.472;2023-06-24T09:06:31;101240.28;;;24.75;100.00
4858;BME280;58975;51.978;8.472;2023-06-24T09:11:28;101229.84;;;24.78;100.00
4858;BME280;58975;51.978;8.472;2023-06-24T09:16:26;101231.03;;;24.69;100.00
4858;BME280;58975;51.978;8.472;2023-06-24T09:21:23;101225.69;;;24.40;100.00
4858;BME280;58975;51.978;8.472;2023-06-24T09:26:25;101227.09;;;24.78;100.00
4858;BME280;58975;51.978;8.472;2023-06-24T09:31:23;101214.38;;;24.58;89.38
4858;BME280;58975;51.978;8.472;2023-06-24T09:36:20;101219.19;;;24.62;92.37
4858;BME280;58975;51.978;8.472;2023-06-24T09:41:16;101218.41;;;23.75;100.00
4858;BME280;58975;51.978;8.472;2023-06-24T09:46:14;101213.31;;;24.59;91.18
4858;BME280;58975;51.978;8.472;2023-06-24T09:51:12;101212.81;;;25.19;94.34
4858;BME280;58975;51.978;8.472;2023-06-24T09:56:11;101214.78;;;24.40;100.00
4858;BME280;58975;51.978;8.472;2023-06-24T10:01:09;101196.88;;;24.94;90.75
4858;BME280;58975;51.978;8.472;2023-06-24T10:06:06;101204.28;;;24.79;99.27
4858;BME280;58975;51.978;8.472;2023-06-24T10:11:03;101200.47;;;24.74;98.24
4858;BME280;58975;51.978;8.472;2023-06-24T10:15:59;101202.59;;;26.03;94.98
4858;BME280;58975;51.978;8.472;2023-06-24T10:20:56;101183.66;;;25.95;82.85
4858;BME280;58975;51.978;8.472;2023-06-24T10:25:52;101179.69;;;25.22;84.51
4858;BME280;58975;51.978;8.472;2023-06-24T10:30:55;101179.41;;;25.10;94.65
4858;BME280;58975;51.978;8.472;2023-06-24T10:35:55;101175.53;;;24.49;100.00
4858;BME280;58975;51.978;8.472;2023-06-24T10:40:51;101172.28;;;24.60;100.00
4858;BME280;58975;51.978;8.472;2023-06-24T10:45:52;101160.00;;;24.71;100.00
4858;BME280;58975;51.978;8.472;2023-06-24T10:50:49;101153.97;;;25.72;90.34
4858;BME280;58975;51.978;8.472;2023-06-24T10:55:46;101143.88;;;26.79;90.78
4858;BME280;58975;51.978;8.472;2023-06-24T11:00:43;101148.53;;;25.37;80.96
4858;BME280;58975;51.978;8.472;2023-06-24T11:05:42;101144.91;;;25.24;92.45
4858;BME280;58975;51.978;8.472;2023-06-24T11:10:46;101134.56;;;26.08;86.31
4858;BME280;58975;51.978;8.472;2023-06-24T11:15:43;101129.97;;;26.15;79.95
4858;BME280;58975;51.978;8.472;2023-06-24T11:20:39;101120.16;;;25.66;80.51
4858;BME280;58975;51.978;8.472;2023-06-24T11:25:41;101124.75;;;26.20;89.35
4858;BME280;58975;51.978;8.472;2023-06-24T11:30:38;101119.94;;;26.22;80.29
4858;BME280;58975;51.978;8.472;2023-06-24T11:35:35;101118.03;;;27.08;74.95
4858;BME280;58975;51.978;8.472;2023-06-24T11:40:33;101131.75;;;25.81;81.12
4858;BME280;58975;51.978;8.472;2023-06-24T11:45:31;101114.47;;;26.28;73.77
4858;BME280;58975;51.978;8.472;2023-06-24T11:50:27;101113.22;;;26.97;71.75
4858;BME280;58975;51.978;8.472;2023-06-24T11:55:24;101108.59;;;26.77;68.34
4858;BME280;58975;51.978;8.472;2023-06-24T12:00:26;101106.25;;;27.71;68.84
4858;BME280;58975;51.978;8.472;2023-06-24T12:05:27;101089.44;;;27.61;63.28
4858;BME280;58975;51.978;8.472;2023-06-24T12:10:26;101090.94;;;26.34;61.63
4858;BME280;58975;51.978;8.472;2023-06-24T12:15:22;101089.06;;;26.34;64.15
4858;BME280;58975;51.978;8.472;2023-06-24T12:20:19;101076.25;;;26.22;63.93
4858;BME280;58975;51.978;8.472;2023-06-24T12:25:17;101072.38;;;27.08;64.73
4858;BME280;58975;51.978;8.472;2023-06-24T12:30:13;101080.44;;;27.54;67.51
4858;BME280;58975;51.978;8.472;2023-06-24T12:35:10;101078.97;;;27.52;60.42
4858;BME280;58975;51.978;8.472;2023-06-24T12:40:07;101076.19;;;26.74;65.37
4858;BME280;58975;51.978;8.472;2023-06-24T12:45:04;101064.88;;;26.77;71.06
4858;BME280;58975;51.978;8.472;2023-06-24T12:50:01;101061.81;;;27.69;61.84
4858;BME280;58975;51.978;8.472;2023-06-24T12:54:57;101058.56;;;26.51;63.03
4858;BME280;58975;51.978;8.472;2023-06-24T12:59:54;101058.97;;;26.80;69.46
4858;BME280;58975;51.978;8.472;2023-06-24T13:04:51;101054.41;;;27.77;64.56
4858;BME280;58975;51.978;8.472;2023-06-24T13:09:47;101056.41;;;26.99;60.21
4858;BME280;58975;51.978;8.472;2023-06-24T13:14:44;101062.16;;;27.42;63.15
4858;BME280;58975;51.978;8.472;2023-06-24T13:19:40;101061.31;;;27.41;55.81
4858;BME280;58975;51.978;8.472;2023-06-24T13:24:37;101052.44;;;27.52;58.32
4858;BME280;58975;51.978;8.472;2023-06-24T13:29:33;101061.09;;;26.39;60.77
4858;BME280;58975;51.978;8.472;2023-06-24T13:34:30;101065.31;;;26.35;64.02
4858;BME280;58975;51.978;8.472;2023-06-24T13:39:26;101049.28;;;25.93;65.22
4858;BME280;58975;51.978;8.472;2023-06-24T13:44:24;101051.97;;;25.73;68.03
4858;BME280;58975;51.978;8.472;2023-06-24T13:49:20;101050.38;;;26.31;65.68
4858;BME280;58975;51.978;8.472;2023-06-24T13:54:17;101039.25;;;27.29;61.79
4858;BME280;58975;51.978;8.472;2023-06-24T13:59:13;101041.75;;;27.44;61.50
4858;BME280;58975;51.978;8.472;2023-06-24T14:04:10;101042.88;;;27.23;65.20
4858;BME280;58975;51.978;8.472;2023-06-24T14:09:06;101044.03;;;26.96;66.16
4858;BME280;58975;51.978;8.472;2023-06-24T14:14:03;101041.97;;;26.39;66.47
4858;BME280;58975;51.978;8.472;2023-06-24T14:18:59;101039.47;;;26.38;68.61
4858;BME280;58975;51.978;8.472;2023-06-24T14:23:57;101045.09;;;25.97;69.52
4858;BME280;58975;51.978;8.472;2023-06-24T14:29:06;101035.66;;;25.86;71.24
4858;BME280;58975;51.978;8.472;2023-06-24T14:34:03;101032.09;;;26.84;71.48
4858;BME280;58975;51.978;8.472;2023-06-24T14:38:59;101023.00;;;26.97;68.05
4858;BME280;58975;51.978;8.472;2023-06-24T14:43:56;101028.31;;;26.39;68.95
4858;BME280;58975;51.978;8.472;2023-06-24T14:48:52;101028.50;;;25.85;74.72
4858;BME280;58975;51.978;8.472;2023-06-24T14:53:49;101027.09;;;26.22;72.43
4858;BME280;58975;51.978;8.472;2023-06-24T14:58:45;101023.13;;;27.15;69.85
4858;BME280;58975;51.978;8.472;2023-06-24T15:03:41;101018.63;;;27.78;66.48
4858;BME280;58975;51.978;8.472;2023-06-24T15:08:38;101017.41;;;26.13;73.96
4858;BME280;58975;51.978;8.472;2023-06-24T15:13:35;101016.31;;;26.07;74.92
4858;BME280;58975;51.978;8.472;2023-06-24T15:18:31;101011.28;;;26.04;70.80
4858;BME280;58975;51.978;8.472;2023-06-24T15:23:28;101008.16;;;26.47;73.76
4858;BME280;58975;51.978;8.472;2023-06-24T15:28:24;100995.31;;;27.31;65.55
4858;BME280;58975;51.978;8.472;2023-06-24T15:33:22;100990.06;;;27.99;62.09
4858;BME280;58975;51.978;8.472;2023-06-24T15:38:20;100988.75;;;28.01;62.92
4858;BME280;58975;51.978;8.472;2023-06-24T15:43:16;100984.75;;;27.72;64.97
4858;BME280;58975;51.978;8.472;2023-06-24T15:48:13;100977.38;;;28.29;59.42
4858;BME280;58975;51.978;8.472;2023-06-24T15:53:09;100977.38;;;28.29;60.54
4858;BME280;58975;51.978;8.472;2023-06-24T15:58:06;100976.16;;;28.25;58.73
4858;BME280;58975;51.978;8.472;2023-06-24T16:03:02;100967.22;;;29.09;56.40
4858;BME280;58975;51.978;8.472;2023-06-24T16:07:59;100963.09;;;27.71;59.33
4858;BME280;58975;51.978;8.472;2023-06-24T16:12:55;100966.66;;;26.96;60.19
4858;BME280;58975;51.978;8.472;2023-06-24T16:17:52;100960.13;;;26.97;59.30
4858;BME280;58975;51.978;8.472;2023-06-24T16:22:48;100951.41;;;28.13;55.64
4858;BME280;58975;51.978;8.472;2023-06-24T16:27:45;100946.84;;;28.87;54.02
4858;BME280;58975;51.978;8.472;2023-06-24T16:32:41;100948.97;;;29.63;53.87
4858;BME280;58975;51.978;8.472;2023-06-24T16:37:38;100952.09;;;28.70;52.81
4858;BME280;58975;51.978;8.472;2023-06-24T16:42:37;100946.81;;;29.05;55.21
4858;BME280;58975;51.978;8.472;2023-06-24T16:47:34;100942.00;;;28.64;52.50
4858;BME280;58975;51.978;8.472;2023-06-24T16:52:31;100942.19;;;29.77;50.62
4858;BME280;58975;51.978;8.472;2023-06-24T16:57:29;100940.13;;;29.60;48.39
4858;BME280;58975;51.978;8.472;2023-06-24T17:02:25;100934.78;;;30.82;46.68
4858;BME280;58975;51.978;8.472;2023-06-24T17:07:22;100931.00;;;31.39;45.78
4858;BME280;58975;51.978;8.472;2023-06-24T17:12:19;100920.06;;;31.73;46.90
4858;BME280;58975;51.978;8.472;2023-06-24T17:17:15;100920.00;;;34.54;40.80
4858;BME280;58975;51.978;8.472;2023-06-24T17:22:12;100911.16;;;34.62;39.29
4858;BME280;58975;51.978;8.472;2023-06-24T17:27:08;100913.22;;;34.87;38.64
4858;BME280;58975;51.978;8.472;2023-06-24T17:32:04;100907.50;;;35.13;37.16
4858;BME280;58975;51.978;8.472;2023-06-24T17:37:01;100918.34;;;33.20;38.85
4858;BME280;58975;51.978;8.472;2023-06-24T17:41:57;100915.16;;;33.97;36.46
4858;BME280;58975;51.978;8.472;2023-06-24T17:46:54;100909.16;;;35.04;37.41
4858;BME280;58975;51.978;8.472;2023-06-24T17:51:50;100914.53;;;36.12;36.99
4858;BME280;58975;51.978;8.472;2023-06-24T17:56:47;100918.38;;;35.60;37.69
4858;BME280;58975;51.978;8.472;2023-06-24T18:01:43;100917.19;;;36.68;37.49
4858;BME280;58975;51.978;8.472;2023-06-24T18:06:40;100912.53;;;36.38;37.18
4858;BME280;58975;51.978;8.472;2023-06-24T18:11:36;100914.13;;;35.07;37.92
4858;BME280;58975;51.978;8.472;2023-06-24T18:16:33;100914.63;;;34.89;37.12
4858;BME280;58975;51.978;8.472;2023-06-24T18:21:29;100918.78;;;34.40;37.25
4858;BME280;58975;51.978;8.472;2023-06-24T18:26:26;100910.13;;;34.21;39.59
4858;BME280;58975;51.978;8.472;2023-06-24T18:31:22;100902.84;;;35.34;39.08
4858;BME280;58975;51.978;8.472;2023-06-24T18:36:19;100898.97;;;35.45;40.20
4858;BME280;58975;51.978;8.472;2023-06-24T18:41:16;100898.59;;;35.01;37.84
4858;BME280;58975;51.978;8.472;2023-06-24T18:46:12;100891.09;;;34.30;39.39
4858;BME280;58975;51.978;8.472;2023-06-24T18:51:08;100899.03;;;33.79;41.61
4858;BME280;58975;51.978;8.472;2023-06-24T18:56:05;100892.31;;;32.29;44.37
4858;BME280;58975;51.978;8.472;2023-06-24T19:01:01;100896.81;;;32.35;47.34
4858;BME280;58975;51.978;8.472;2023-06-24T19:05:58;100904.47;;;31.95;48.57
4858;BME280;58975;51.978;8.472;2023-06-24T19:10:54;100896.94;;;31.12;51.03
4858;BME280;58975;51.978;8.472;2023-06-24T19:15:51;100903.19;;;30.21;53.47
4858;BME280;58975;51.978;8.472;2023-06-24T19:20:47;100908.75;;;28.60;57.12
4858;BME280;58975;51.978;8.472;2023-06-24T19:25:44;100911.25;;;26.62;65.49
4858;BME280;58975;51.978;8.472;2023-06-24T19:30:40;100912.00;;;25.99;79.31
4858;BME280;58975;51.978;8.472;2023-06-24T19:35:37;100913.38;;;25.16;100.00
4858;BME280;58975;51.978;8.472;2023-06-24T19:40:33;100918.28;;;24.38;100.00
4858;BME280;58975;51.978;8.472;2023-06-24T19:45:30;100904.84;;;23.81;100.00
4858;BME280;58975;51.978;8.472;2023-06-24T19:50:27;100910.25;;;23.32;100.00
4858;BME280;58975;51.978;8.472;2023-06-24T19:55:23;100913.56;;;22.92;100.00
4858;BME280;58975;51.978;8.472;2023-06-24T20:00:20;100912.94;;;22.46;100.00
4858;BME280;58975;51.978;8.472;2023-06-24T20:05:20;100917.25;;;22.11;100.00
4858;BME280;58975;51.978;8.472;2023-06-24T20:10:16;100915.94;;;21.84;100.00
4858;BME280;58975;51.978;8.472;2023-06-24T20:15:13;100913.63;;;21.58;100.00
4858;BME280;58975;51.978;8.472;2023-06-24T20:20:10;100918.22;;;21.35;100.00
4858;BME280;58975;51.978;8.472;2023-06-24T20:25:06;100916.69;;;21.02;100.00
4858;BME280;58975;51.978;8.472;2023-06-24T20:30:03;100912.22;;;20.86;100.00
4858;BME280;58975;51.978;8.472;2023-06-24T20:35:00;100911.59;;;20.76;100.00
4858;BME280;58975;51.978;8.472;2023-06-24T20:39:56;100907.59;;;20.64;100.00
4858;BME280;58975;51.978;8.472;2023-06-24T20:44:53;100908.16;;;20.51;100.00
4858;BME280;58975;51.978;8.472;2023-06-24T20:49:50;100909.75;;;20.38;100.00
4858;BME280;58975;51.978;8.472;2023-06-24T20:54:46;100907.06;;;20.21;100.00
4858;BME280;58975;51.978;8.472;2023-06-24T20:59:42;100909.66;;;20.07;100.00
4858;BME280;58975;51.978;8.472;2023-06-24T21:04:39;100906.44;;;19.95;100.00
4858;BME280;58975;51.978;8.472;2023-06-24T21:09:35;100905.13;;;19.75;100.00
4858;BME280;58975;51.978;8.472;2023-06-24T21:14:32;100909.69;;;19.58;100.00
4858;BME280;58975;51.978;8.472;2023-06-24T21:19:29;100910.84;;;19.40;100.00
4858;BME280;58975;51.978;8.472;2023-06-24T21:24:25;100904.91;;;19.20;100.00
4858;BME280;58975;51.978;8.472;2023-06-24T21:29:21;100902.53;;;19.09;100.00
4858;BME280;58975;51.978;8.472;2023-06-24T21:34:18;100897.44;;;19.06;100.00
4858;BME280;58975;51.978;8.472;2023-06-24T21:39:14;100893.22;;;19.03;100.00
4858;BME280;58975;51.978;8.472;2023-06-24T21:44:11;100894.22;;;18.94;100.00
4858;BME280;58975;51.978;8.472;2023-06-24T21:49:08;100899.25;;;18.81;100.00
4858;BME280;58975;51.978;8.472;2023-06-24T21:54:06;100907.66;;;18.70;100.00
4858;BME280;58975;51.978;8.472;2023-06-24T21:59:03;100893.31;;;18.61;100.00
4858;BME280;58975;51.978;8.472;2023-06-24T22:03:59;100895.13;;;18.53;100.00
4858;BME280;58975;51.978;8.472;2023-06-24T22:08:57;100888.97;;;18.42;100.00
4858;BME280;58975;51.978;8.472;2023-06-24T22:13:54;100891.78;;;18.33;100.00
4858;BME280;58975;51.978;8.472;2023-06-24T22:18:50;100888.91;;;18.26;100.00
4858;BME280;58975;51.978;8.472;2023-06-24T22:23:47;100887.03;;;18.19;100.00
4858;BME280;58975;51.978;8.472;2023-06-24T22:28:43;100895.06;;;18.11;100.00
4858;BME280;58975;51.978;8.472;2023-06-24T22:33:40;100892.31;;;18.03;100.00
4858;BME280;58975;51.978;8.472;2023-06-24T22:38:37;100892.94;;;17.96;100.00
4858;BME280;58975;51.978;8.472;2023-06-24T22:43:34;100896.44;;;17.89;100.00
4858;BME280;58975;51.978;8.472;2023-06-24T22:48:30;100897.06;;;17.83;100.00
4858;BME280;58975;51.978;8.472;2023-06-24T22:53:27;100886.69;;;17.70;100.00
4858;BME280;58975;51.978;8.472;2023-06-24T22:58:23;100888.47;;;17.62;100.00
4858;BME280;58975;51.978;8.472;2023-06-24T23:03:20;100881.56;;;17.59;100.00
4858;BME280;58975;51.978;8.472;2023-06-24T23:08:17;100881.00;;;17.56;100.00
4858;BME280;58975;51.978;8.472;2023-06-24T23:13:13;100884.00;;;17.52;100.00
4858;BME280;58975;51.978;8.472;2023-06-24T23:18:10;100879.56;;;17.43;100.00
4858;BME280;58975;51.978;8.472;2023-06-24T23:23:10;100876.16;;;17.41;100.00
4858;BME280;58975;51.978;8.472;2023-06-24T23:28:13;100880.63;;;17.33;100.00
4858;BME280;58975;51.978;8.472;2023-06-24T23:33:15;100880.13;;;17.12;100.00
4858;BME280;58975;51.978;8.472;2023-06-24T23:38:13;100882.41;;;17.07;100.00
4858;BME280;58975;51.978;8.472;2023-06-24T23:43:10;100886.88;;;16.98;100.00
4858;BME280;58975;51.978;8.472;2023-06-24T23:48:07;100881.50;;;16.98;100.00
4858;BME280;58975;51.978;8.472;2023-06-24T23:53:03;100872.66;;;16.88;100.00
4858;BME280;58975;51.978;8.472;2023-06-24T23:58:00;100880.78;;;16.78;100.00
